map of FDF home
FDF - Airport
Location
City:  Fort de France, Martinique
Near (Alt.):Le Lamentin
Name:Martinique Aimé Césaire International Airport
ICAO:TFFF
IATA:FDF

Details
Type:Airport (Aerodrome, Airfield)
Use:International (customs port of entry)
Latitude:14°35'32"N (14.592222)
Longitude:60°59'47"W (-60.996388)
Elevation:16 ft (5 m)
Variation:15.09°W (WMM2015 magnetic declination)
-0.03° annual change
Runways:1
Longest:9843 × 148 ft (3000 × 45 m), paved

Time
Time Zone:UTC-4
Local Time:

Weather
METAR:TFFF 210200Z AUTO 09009KT 9999 FEW030 27/22 Q1015 TEMPO 3000 SHRA BKN015TCU
TAF:TFFF 201700Z 2018/2118 10012KT 9999 SCT020 SCT050
TEMPO 2018/2021 10015G25KT
TEMPO 2100/2112 3000 SHRA BKN018TCU

Related Locations
Nearby:
Farthest:YCLQ: 12155 mi / 19562 km
Cape Leveque [Cape Leveque Airport], WA, AU

Find:

   beyond  
but within

Other Information
Maps:
NOTAMs:
Links:
Sources:

  
  • flag of Martinique
  

Sectional Chart

Flight Planning
at skyvector.com

Satellite Image

Google Maps Satellite view

 

Copyright © 2004-2018 Karl L. Swartz. All rights reserved.
The Great Circle Mapper name and logo are trademarks of the Great Circle Mapper.
All other trademarks mentioned herein belong to their respective owners.
Please see credits for attibutions and further copyright information.

  Follow gcmap on Facebook Follow gcmap on Twitter Follow gcmap on Google+ GCmap on LinkedIn

hCard Microformat

Geo Microformat